Time;durP1;ratioP1;P1;durP2;ratioP2;P2;SDS_P1;SDS_P2;PMS_P1;PMS_P2;Temp;Humidity;BMP_temperature;BMP_pressure;BME280_temperature;BME280_humidity;BME280_pressure;Samples;Min_cycle;Max_cycle;Signal;HPM_P1;HPM_P2
2023/11/13 00:01:48;;;;;;;12.25;5.25;;;;;;;9.12;82.77;98789.34;5020912;28;20058;-47
2023/11/13 00:04:14;;;;;;;17.88;4.38;;;;;;;9.13;82.50;98789.28;5026612;28;20132;-51
2023/11/13 00:06:41;;;;;;;11.25;3.13;;;;;;;9.14;83.00;98790.16;5015857;28;20104;-51
2023/11/13 00:09:09;;;;;;;19.50;3.53;;;;;;;9.17;82.98;98790.09;5019353;28;20045;-51
2023/11/13 00:11:36;;;;;;;18.70;5.15;;;;;;;9.17;83.15;98774.59;5021630;28;20045;-53
2023/11/13 00:14:03;;;;;;;16.85;3.33;;;;;;;9.18;82.95;98781.47;5023799;28;20136;-44
2023/11/13 00:16:29;;;;;;;21.77;4.97;;;;;;;9.20;82.78;98784.03;5023213;28;20056;-48
2023/11/13 00:18:57;;;;;;;16.13;4.75;;;;;;;9.20;82.88;98784.88;5022585;28;20139;-47
2023/11/13 00:21:24;;;;;;;21.33;4.22;;;;;;;9.23;83.36;98774.47;5018699;28;20054;-46
2023/11/13 00:23:50;;;;;;;23.35;5.72;;;;;;;9.24;82.72;98776.19;5021237;28;20064;-49
2023/11/13 00:26:18;;;;;;;19.58;4.90;;;;;;;9.25;83.29;98766.69;5025364;28;20080;-46
2023/11/13 00:28:45;;;;;;;17.92;4.40;;;;;;;9.26;82.67;98769.25;5019962;28;20556;-48
2023/11/13 00:31:13;;;;;;;21.58;5.05;;;;;;;9.29;83.38;98772.69;5022294;28;20037;-45
2023/11/13 00:33:40;;;;;;;20.25;3.42;;;;;;;9.30;83.38;98785.56;5024578;28;20042;-46
2023/11/13 00:36:07;;;;;;;17.70;5.13;;;;;;;9.32;83.52;98778.63;5018178;28;20148;-50
2023/11/13 00:38:34;;;;;;;31.63;5.15;;;;;;;9.34;83.18;98770.84;5016346;28;20048;-46
2023/11/13 00:41:01;;;;;;;22.17;2.92;;;;;;;9.35;83.17;98767.38;5010748;28;20053;-47
2023/11/13 00:43:29;;;;;;;22.48;5.00;;;;;;;9.37;83.38;98744.97;5034477;28;20095;-47
2023/11/13 00:45:56;;;;;;;27.33;5.28;;;;;;;9.36;83.68;98714.84;5021678;28;20514;-46
2023/11/13 00:48:22;;;;;;;15.60;5.63;;;;;;;9.38;83.46;98707.91;5022010;28;20041;-46
2023/11/13 00:50:49;;;;;;;20.13;2.85;;;;;;;9.38;83.62;98715.66;5021537;28;20049;-45
2023/11/13 00:53:16;;;;;;;18.10;4.40;;;;;;;9.39;83.74;98728.53;5023482;28;20096;-46
2023/11/13 00:55:43;;;;;;;18.95;5.22;;;;;;;9.43;83.62;98742.28;5026651;28;20045;-43
2023/11/13 00:58:09;;;;;;;7.22;3.33;;;;;;;9.40;83.94;98729.41;5024061;28;20547;-50
2023/11/13 01:00:36;;;;;;;18.52;4.63;;;;;;;9.41;83.90;98704.41;5022472;28;20698;-42
2023/11/13 01:03:04;;;;;;;10.50;2.00;;;;;;;9.41;83.52;98713.00;5026548;28;20045;-48
2023/11/13 01:05:33;;;;;;;8.10;2.53;;;;;;;9.40;84.36;98711.31;5013670;28;20053;-43
2023/11/13 01:08:01;;;;;;;18.08;3.70;;;;;;;9.45;84.14;98716.38;5013257;28;20108;-47
2023/11/13 01:10:28;;;;;;;15.65;2.97;;;;;;;9.44;83.84;98720.72;5011090;28;20081;-50
2023/11/13 01:12:54;;;;;;;14.48;3.03;;;;;;;9.46;84.23;98713.75;5016583;28;20045;-48
2023/11/13 01:15:22;;;;;;;16.90;2.38;;;;;;;9.47;83.78;98718.06;5015602;28;20045;-43
2023/11/13 01:17:49;;;;;;;18.95;4.13;;;;;;;9.48;83.92;98717.19;5017444;28;20037;-47
2023/11/13 01:20:18;;;;;;;9.20;1.92;;;;;;;9.47;84.42;98720.66;5012486;28;20069;-44
2023/11/13 01:22:45;;;;;;;12.20;4.15;;;;;;;9.50;83.99;98722.31;5014777;28;20133;-46
2023/11/13 01:25:12;;;;;;;17.70;5.25;;;;;;;9.52;84.35;98718.81;5023790;28;20671;-46
2023/11/13 01:27:39;;;;;;;18.75;2.92;;;;;;;9.52;84.42;98712.78;5015784;28;20054;-45
2023/11/13 01:30:09;;;;;;;20.10;3.47;;;;;;;9.52;84.08;98703.31;5021589;28;20053;-44
2023/11/13 01:32:37;;;;;;;12.68;2.70;;;;;;;9.51;84.33;98706.78;5022343;28;20045;-46
2023/11/13 01:35:05;;;;;;;16.02;3.70;;;;;;;9.52;84.68;98702.44;5024558;28;20045;-51
2023/11/13 01:37:35;;;;;;;17.30;4.28;;;;;;;9.53;84.71;98693.84;5026470;28;20051;-49
2023/11/13 01:40:05;;;;;;;14.38;3.13;;;;;;;9.55;84.29;98692.06;5019950;28;20515;-45
2023/11/13 01:42:33;;;;;;;14.88;4.38;;;;;;;9.55;83.88;98691.22;5023974;28;20695;-52
2023/11/13 01:45:02;;;;;;;17.73;4.13;;;;;;;9.54;84.54;98680.03;5025611;28;20084;-49
2023/11/13 01:47:30;;;;;;;13.68;2.95;;;;;;;9.56;83.89;98674.81;5018232;28;20075;-46
2023/11/13 01:49:58;;;;;;;17.95;4.57;;;;;;;9.56;84.08;98667.91;5016466;28;20046;-46
2023/11/13 01:52:27;;;;;;;10.82;3.90;;;;;;;9.56;84.43;98656.72;5022784;28;20049;-45
2023/11/13 01:54:56;;;;;;;16.42;2.53;;;;;;;9.55;85.11;98649.88;5023916;28;20103;-50
2023/11/13 01:57:24;;;;;;;5.30;2.88;;;;;;;9.55;84.62;98652.44;5013461;28;20535;-44
2023/11/13 01:59:53;;;;;;;9.95;3.28;;;;;;;9.57;84.35;98648.09;5024272;28;20049;-49
2023/11/13 02:02:21;;;;;;;13.55;4.03;;;;;;;9.57;83.97;98632.56;5020214;28;20092;-46
2023/11/13 02:04:50;;;;;;;12.10;2.97;;;;;;;9.57;84.45;98636.03;5023427;28;20041;-40
2023/11/13 02:07:17;;;;;;;18.38;3.88;;;;;;;9.56;84.64;98631.72;5018055;28;20426;-45
2023/11/13 02:09:46;;;;;;;11.35;3.65;;;;;;;9.57;84.49;98622.25;5018127;28;20052;-51
2023/11/13 02:12:12;;;;;;;11.13;3.50;;;;;;;9.56;84.25;98631.72;5025275;28;20738;-43
2023/11/13 02:14:39;;;;;;;4.63;1.35;;;;;;;9.57;84.17;98622.25;5025154;28;20092;-48
2023/11/13 02:17:08;;;;;;;10.20;1.90;;;;;;;9.56;84.55;98616.22;5026578;28;20046;-48
2023/11/13 02:19:35;;;;;;;6.90;2.85;;;;;;;9.54;84.37;98618.00;5027352;28;20060;-50
2023/11/13 02:22:04;;;;;;;13.57;2.45;;;;;;;9.56;84.13;98607.63;5027088;28;20133;-44
2023/11/13 02:24:31;;;;;;;10.48;3.65;;;;;;;9.52;84.51;98610.25;5024530;28;20107;-43
2023/11/13 02:26:57;;;;;;;14.63;2.00;;;;;;;9.52;84.38;98605.09;5020636;28;20049;-49
2023/11/13 02:29:24;;;;;;;13.98;4.10;;;;;;;9.52;84.74;98597.34;5022485;28;20500;-45
2023/11/13 02:31:53;;;;;;;10.43;2.72;;;;;;;9.51;84.97;98598.22;5021049;28;20050;-46
2023/11/13 02:34:21;;;;;;;12.43;2.38;;;;;;;9.51;84.44;98587.03;5027174;28;20502;-53
2023/11/13 02:36:50;;;;;;;7.97;2.15;;;;;;;9.51;84.34;98571.53;5018939;28;20080;-46
2023/11/13 02:39:19;;;;;;;21.90;2.67;;;;;;;9.50;84.87;98565.50;5026378;28;20045;-47
2023/11/13 02:41:47;;;;;;;7.80;1.60;;;;;;;9.49;84.87;98571.56;5024105;28;20050;-50
2023/11/13 02:44:14;;;;;;;12.90;1.80;;;;;;;9.49;84.28;98579.31;5024071;28;20042;-50
2023/11/13 02:46:41;;;;;;;10.90;2.95;;;;;;;9.51;84.17;98571.53;5023025;28;20136;-53
2023/11/13 02:49:08;;;;;;;12.25;3.22;;;;;;;9.49;84.49;98571.56;5024727;28;20081;-49
2023/11/13 02:51:35;;;;;;;13.63;3.65;;;;;;;9.48;84.42;98562.09;5026897;28;20077;-50
2023/11/13 02:54:03;;;;;;;6.95;2.65;;;;;;;9.48;84.63;98559.53;5021941;28;20052;-41
2023/11/13 02:56:30;;;;;;;4.13;2.20;;;;;;;9.44;84.76;98550.16;5024067;28;20107;-49
2023/11/13 02:58:57;;;;;;;8.68;1.23;;;;;;;9.44;84.90;98550.16;5026595;28;20073;-50
2023/11/13 03:01:24;;;;;;;7.55;1.58;;;;;;;9.44;84.48;98552.72;5025810;28;20476;-45
2023/11/13 03:03:51;;;;;;;4.68;1.17;;;;;;;9.42;84.63;98541.56;5008777;28;20319;-45
2023/11/13 03:06:22;;;;;;;13.05;3.42;;;;;;;9.44;84.81;98544.97;5015407;28;20115;-46
2023/11/13 03:08:48;;;;;;;14.63;3.22;;;;;;;9.44;85.11;98528.59;5020485;28;20073;-45
2023/11/13 03:11:16;;;;;;;11.30;1.73;;;;;;;9.42;84.99;98520.88;5023289;28;20045;-50
2023/11/13 03:13:42;;;;;;;9.52;0.88;;;;;;;9.43;84.97;98512.28;5017747;28;20050;-47
2023/11/13 03:16:09;;;;;;;18.85;2.00;;;;;;;9.44;85.24;98511.38;5022688;28;20045;-50
2023/11/13 03:18:36;;;;;;;9.93;2.90;;;;;;;9.44;84.84;98506.22;5022194;28;20053;-47
2023/11/13 03:21:04;;;;;;;8.65;1.23;;;;;;;9.44;85.12;98492.44;5022286;28;20538;-48
2023/11/13 03:23:31;;;;;;;13.93;3.55;;;;;;;9.45;84.81;98487.22;5021695;28;20146;-47
2023/11/13 03:26:00;;;;;;;13.38;2.83;;;;;;;9.45;84.85;98479.47;5028115;28;20483;-43
2023/11/13 03:28:26;;;;;;;16.70;3.42;;;;;;;9.46;84.70;98480.34;5021265;28;20889;-46
2023/11/13 03:30:53;;;;;;;9.32;1.55;;;;;;;9.45;85.04;98489.81;5025138;28;20045;-47
2023/11/13 03:33:21;;;;;;;3.83;2.20;;;;;;;9.46;85.02;98491.50;5021051;28;20060;-52
2023/11/13 03:35:50;;;;;;;7.18;3.17;;;;;;;9.45;85.05;98482.06;5023174;28;20081;-42
2023/11/13 03:38:18;;;;;;;7.68;1.30;;;;;;;9.45;85.09;98468.28;5019646;28;20130;-47
2023/11/13 03:40:45;;;;;;;10.20;2.13;;;;;;;9.44;84.64;98472.63;5023969;28;20053;-45
2023/11/13 03:43:11;;;;;;;14.45;2.65;;;;;;;9.41;85.04;98477.00;5022221;28;20045;-48
2023/11/13 03:45:38;;;;;;;9.43;3.03;;;;;;;9.39;84.86;98459.78;5018547;28;20419;-47
2023/11/13 03:48:05;;;;;;;10.55;0.98;;;;;;;9.37;84.64;98448.66;5024371;28;20044;-44
2023/11/13 03:50:32;;;;;;;6.50;1.08;;;;;;;9.35;84.20;98446.97;5022461;28;20099;-45
2023/11/13 03:52:59;;;;;;;4.60;0.73;;;;;;;9.33;84.20;98438.44;5021972;28;20121;-46
2023/11/13 03:55:26;;;;;;;5.05;2.55;;;;;;;9.30;84.57;98425.56;5017783;28;20054;-44
2023/11/13 03:57:53;;;;;;;6.95;2.90;;;;;;;9.26;84.42;98404.97;5015242;28;20443;-43
2023/11/13 04:00:21;;;;;;;7.10;3.13;;;;;;;9.29;84.15;98410.97;5018226;28;20085;-49
2023/11/13 04:02:48;;;;;;;4.40;2.03;;;;;;;9.24;84.42;98398.16;5022966;28;20173;-43
2023/11/13 04:05:15;;;;;;;5.88;2.38;;;;;;;9.24;83.98;98383.50;5019555;28;20533;-46
2023/11/13 04:07:42;;;;;;;9.75;2.00;;;;;;;9.19;83.69;98379.34;5020818;28;20057;-47
2023/11/13 04:10:14;;;;;;;7.20;2.55;;;;;;;9.13;83.99;98350.16;5022756;28;20050;-44
2023/11/13 04:12:42;;;;;;;2.92;2.22;;;;;;;9.08;83.54;98348.56;5017951;28;20082;-48
2023/11/13 04:15:10;;;;;;;1.52;0.80;;;;;;;9.02;83.38;98339.25;5023891;28;20045;-44
2023/11/13 04:17:37;;;;;;;7.78;1.25;;;;;;;9.04;83.48;98334.03;5027204;28;20502;-49
2023/11/13 04:20:06;;;;;;;2.92;1.90;;;;;;;9.01;84.05;98327.22;5024862;28;20053;-40
2023/11/13 04:22:33;;;;;;;5.57;2.08;;;;;;;9.00;83.62;98312.63;5019967;28;20065;-43
2023/11/13 04:25:01;;;;;;;2.45;0.70;;;;;;;8.98;83.82;98288.56;5023870;28;20045;-51
2023/11/13 04:27:29;;;;;;;6.00;2.13;;;;;;;8.98;83.83;98279.09;5023434;28;20045;-49
2023/11/13 04:29:56;;;;;;;7.10;3.38;;;;;;;8.97;83.56;98267.06;5020246;28;20402;-46
2023/11/13 04:32:23;;;;;;;4.07;1.05;;;;;;;8.95;83.74;98258.50;5016485;28;20044;-44
2023/11/13 04:34:51;;;;;;;9.77;1.25;;;;;;;8.91;84.49;98256.88;5018732;28;20049;-46
2023/11/13 04:37:18;;;;;;;5.95;0.75;;;;;;;8.88;84.55;98249.19;5022793;28;20076;-48
2023/11/13 04:39:45;;;;;;;11.82;3.10;;;;;;;8.89;85.02;98243.19;5018732;28;20053;-46
2023/11/13 04:42:12;;;;;;;2.38;0.82;;;;;;;8.87;85.04;98247.53;5021593;28;20046;-40
2023/11/13 04:44:39;;;;;;;6.65;2.30;;;;;;;8.88;85.36;98246.63;5022939;28;20082;-51
2023/11/13 04:47:07;;;;;;;6.25;1.55;;;;;;;8.87;86.17;98219.13;5023667;28;20054;-54
2023/11/13 04:49:35;;;;;;;9.40;2.88;;;;;;;8.92;85.87;98196.59;5024394;28;20511;-49
2023/11/13 04:52:02;;;;;;;4.78;2.15;;;;;;;8.90;85.83;98188.06;5020175;28;20156;-44
2023/11/13 04:54:29;;;;;;;6.30;2.65;;;;;;;8.86;86.20;98183.88;5021082;28;20050;-47
2023/11/13 04:56:57;;;;;;;9.43;3.15;;;;;;;8.86;86.50;98176.13;5026417;28;20053;-45
2023/11/13 04:59:25;;;;;;;5.90;2.00;;;;;;;8.86;86.46;98176.13;5025751;28;20128;-48
2023/11/13 05:01:53;;;;;;;9.45;3.25;;;;;;;8.83;86.28;98160.72;5021909;28;20053;-44
2023/11/13 05:04:20;;;;;;;4.97;2.42;;;;;;;8.86;86.61;98165.81;5019976;28;20067;-48
2023/11/13 05:06:47;;;;;;;4.53;1.00;;;;;;;8.83;86.52;98155.53;5026240;28;20045;-44
2023/11/13 05:09:14;;;;;;;7.30;1.25;;;;;;;8.82;86.42;98151.28;5021701;28;20049;-46
2023/11/13 05:11:41;;;;;;;4.70;2.85;;;;;;;8.79;86.68;98141.03;5024214;28;20099;-45
2023/11/13 05:14:08;;;;;;;6.97;2.75;;;;;;;8.78;87.00;98136.75;5022916;28;20053;-43
2023/11/13 05:16:34;;;;;;;4.40;3.05;;;;;;;8.76;86.56;98115.28;5023092;28;20045;-47
2023/11/13 05:19:03;;;;;;;3.33;0.88;;;;;;;8.78;86.76;98105.78;5023656;28;20050;-51
2023/11/13 05:21:30;;;;;;;4.20;0.90;;;;;;;8.82;86.59;98112.56;5025459;28;20513;-51
2023/11/13 05:23:56;;;;;;;8.15;3.40;;;;;;;8.92;86.10;98136.38;5024220;28;20444;-46
2023/11/13 05:26:23;;;;;;;2.08;1.40;;;;;;;8.91;86.27;98111.47;5029288;28;20041;-47
2023/11/13 05:28:50;;;;;;;4.90;3.67;;;;;;;8.92;85.82;98101.06;5020205;28;20160;-48
2023/11/13 05:31:19;;;;;;;8.95;2.80;;;;;;;8.98;85.78;98098.34;5023689;28;20057;-43
2023/11/13 05:33:46;;;;;;;7.60;2.38;;;;;;;8.99;85.85;98092.28;5021828;28;20057;-42
2023/11/13 05:36:13;;;;;;;7.60;2.67;;;;;;;9.03;85.53;98081.84;5025998;28;20037;-43
2023/11/13 05:38:42;;;;;;;4.13;2.85;;;;;;;9.06;85.46;98068.88;5024611;28;20053;-42
2023/11/13 05:41:09;;;;;;;6.50;1.80;;;;;;;9.09;85.36;98050.72;5023807;28;20042;-44
2023/11/13 05:43:36;;;;;;;4.68;1.33;;;;;;;9.08;85.39;98041.25;5023058;28;20245;-44
2023/11/13 05:46:03;;;;;;;5.45;1.23;;;;;;;9.11;85.42;98041.16;5021333;28;20041;-44
2023/11/13 05:48:30;;;;;;;3.15;1.23;;;;;;;9.05;85.36;98023.28;5030187;28;20164;-49
2023/11/13 05:50:58;;;;;;;4.50;1.05;;;;;;;9.03;85.81;98006.97;5019502;28;20045;-52
2023/11/13 05:53:25;;;;;;;3.40;2.33;;;;;;;9.02;85.86;97985.47;5024504;28;20047;-49
2023/11/13 05:55:52;;;;;;;5.28;1.45;;;;;;;8.92;86.00;97974.56;5027106;28;20049;-43
2023/11/13 05:58:22;;;;;;;4.80;1.52;;;;;;;8.95;85.77;97984.81;5029877;28;20054;-45
2023/11/13 06:00:49;;;;;;;4.15;2.72;;;;;;;8.99;85.70;97976.06;5023299;28;20131;-47
2023/11/13 06:03:16;;;;;;;2.92;1.67;;;;;;;8.96;85.96;97965.88;5027871;28;20049;-45
2023/11/13 06:05:43;;;;;;;3.72;1.13;;;;;;;8.94;86.10;97972.78;5027295;28;20068;-50
2023/11/13 06:08:10;;;;;;;4.95;2.83;;;;;;;8.97;86.19;97952.06;5025754;28;20049;-44
2023/11/13 06:10:37;;;;;;;3.40;2.45;;;;;;;8.90;86.09;97929.88;5027812;28;20045;-47
2023/11/13 06:13:06;;;;;;;5.65;2.88;;;;;;;8.92;86.32;97929.84;5025531;28;20061;-47
2023/11/13 06:15:36;;;;;;;4.00;1.23;;;;;;;8.92;86.71;97916.94;5030147;28;20120;-45
2023/11/13 06:18:03;;;;;;;3.33;1.23;;;;;;;8.88;86.66;97900.69;5028963;28;20076;-46
2023/11/13 06:20:29;;;;;;;1.73;0.70;;;;;;;8.94;86.95;97884.16;5027377;28;20133;-40
2023/11/13 06:22:56;;;;;;;6.20;1.15;;;;;;;8.93;87.18;97883.31;5027226;28;20045;-49
2023/11/13 06:25:22;;;;;;;1.33;0.68;;;;;;;8.85;87.70;97865.47;5027683;28;20046;-45
2023/11/13 06:27:50;;;;;;;2.38;2.17;;;;;;;8.85;87.84;97849.16;5027349;28;20576;-44
2023/11/13 06:30:17;;;;;;;1.20;0.70;;;;;;;8.87;88.03;97842.19;5026133;28;20064;-46
2023/11/13 06:32:47;;;;;;;1.52;0.60;;;;;;;8.89;87.67;97824.94;5028417;28;20061;-43
2023/11/13 06:35:16;;;;;;;2.42;1.60;;;;;;;8.83;88.62;97825.97;5026147;28;20053;-49
2023/11/13 06:37:42;;;;;;;1.48;0.40;;;;;;;8.88;88.35;97810.31;5026455;28;20049;-44
2023/11/13 06:40:09;;;;;;;1.13;0.35;;;;;;;8.86;88.06;97801.81;5023701;28;20053;-43
2023/11/13 06:42:36;;;;;;;1.80;1.70;;;;;;;8.92;89.15;97785.28;5023421;28;20053;-52
2023/11/13 06:45:03;;;;;;;1.63;1.52;;;;;;;8.96;88.71;97779.97;5028842;28;20052;-45
2023/11/13 06:47:30;;;;;;;2.15;1.60;;;;;;;8.98;88.57;97778.16;5022246;28;20149;-49
2023/11/13 06:49:57;;;;;;;1.70;1.60;;;;;;;9.05;88.40;97777.97;5027019;28;20045;-51
2023/11/13 06:52:24;;;;;;;1.85;1.75;;;;;;;9.08;88.53;97783.00;5022944;28;20045;-42
2023/11/13 06:54:52;;;;;;;2.08;1.98;;;;;;;9.10;88.23;97786.41;5020110;28;20064;-44
2023/11/13 06:57:19;;;;;;;2.25;1.67;;;;;;;9.13;88.02;97766.47;5024401;28;20053;-50
2023/11/13 06:59:47;;;;;;;1.70;1.60;;;;;;;9.13;87.75;97747.56;5024298;28;20053;-53
2023/11/13 07:02:15;;;;;;;2.60;1.88;;;;;;;9.20;87.88;97743.03;5019147;28;20042;-49
2023/11/13 07:04:42;;;;;;;0.57;0.40;;;;;;;9.13;88.74;97734.66;5026693;28;20128;-47
2023/11/13 07:07:09;;;;;;;0.75;0.40;;;;;;;9.16;88.38;97719.06;5017393;28;20042;-43
2023/11/13 07:09:35;;;;;;;0.82;0.40;;;;;;;9.19;89.24;97708.59;5021577;28;20115;-44
2023/11/13 07:12:02;;;;;;;0.70;0.43;;;;;;;9.22;88.65;97708.50;5021043;28;20057;-45
2023/11/13 07:14:29;;;;;;;1.65;1.55;;;;;;;9.25;88.73;97708.38;5021221;28;20050;-48
2023/11/13 07:16:56;;;;;;;0.47;0.47;;;;;;;9.26;88.46;97689.41;5023729;28;20055;-45
2023/11/13 07:19:23;;;;;;;0.90;0.50;;;;;;;9.32;88.68;97690.09;5023872;28;20049;-44
2023/11/13 07:21:51;;;;;;;2.92;0.55;;;;;;;9.38;88.90;97677.81;5023162;28;20046;-47
2023/11/13 07:24:18;;;;;;;2.13;0.70;;;;;;;9.45;89.33;97668.09;5023459;28;20041;-44
2023/11/13 07:26:45;;;;;;;0.60;0.30;;;;;;;9.49;89.10;97668.84;5022626;28;20072;-48
2023/11/13 07:29:11;;;;;;;1.08;0.70;;;;;;;9.54;88.99;97653.13;5021627;28;20053;-49
2023/11/13 07:31:39;;;;;;;1.17;0.70;;;;;;;9.59;89.18;97648.66;5019190;28;20129;-50
2023/11/13 07:34:07;;;;;;;1.23;0.80;;;;;;;9.64;89.32;97631.22;5022606;28;20080;-44
2023/11/13 07:36:34;;;;;;;2.55;2.35;;;;;;;9.67;90.04;97631.13;5017710;28;20046;-49
2023/11/13 07:39:00;;;;;;;2.05;0.85;;;;;;;9.74;91.08;97626.53;5020334;28;20051;-46
2023/11/13 07:41:27;;;;;;;3.05;2.65;;;;;;;9.77;90.82;97614.34;5026905;28;20740;-45
2023/11/13 07:43:56;;;;;;;1.80;1.40;;;;;;;9.85;91.88;97606.28;5023569;28;20506;-43
2023/11/13 07:46:22;;;;;;;3.03;2.40;;;;;;;9.94;92.03;97602.50;5014894;28;20049;-50
2023/11/13 07:48:50;;;;;;;3.85;1.60;;;;;;;10.03;92.32;97602.13;5016451;28;20406;-47
2023/11/13 07:51:17;;;;;;;3.83;3.35;;;;;;;10.12;90.85;97605.25;5015272;28;20076;-51
2023/11/13 07:53:46;;;;;;;4.68;3.65;;;;;;;10.21;90.95;97585.94;5019751;28;20103;-49
2023/11/13 07:56:13;;;;;;;3.17;2.38;;;;;;;10.28;92.22;97580.47;5017366;28;20058;-40
2023/11/13 07:58:40;;;;;;;3.38;2.90;;;;;;;10.34;92.15;97579.34;5008978;28;20054;-43
2023/11/13 08:01:08;;;;;;;1.60;1.50;;;;;;;10.43;92.38;97577.28;5007300;28;20053;-51
2023/11/13 08:03:35;;;;;;;4.50;1.52;;;;;;;10.54;91.54;97575.13;5016079;28;20410;-45
2023/11/13 08:06:03;;;;;;;7.30;2.25;;;;;;;10.65;92.15;97582.44;5014334;28;20042;-50
2023/11/13 08:08:30;;;;;;;3.92;3.05;;;;;;;10.76;91.41;97575.03;5013465;28;20060;-51
2023/11/13 08:10:57;;;;;;;3.60;2.25;;;;;;;10.87;92.04;97555.59;5009807;28;20069;-43
2023/11/13 08:13:24;;;;;;;2.97;2.78;;;;;;;10.98;92.75;97568.91;5011985;28;20061;-50
2023/11/13 08:15:52;;;;;;;3.13;2.38;;;;;;;11.14;92.86;97573.41;5015434;28;20071;-47
2023/11/13 08:18:19;;;;;;;2.20;0.82;;;;;;;11.30;92.67;97579.59;5017809;28;20384;-51
2023/11/13 08:20:46;;;;;;;2.33;2.08;;;;;;;11.44;93.30;97578.94;5020373;28;20099;-49
2023/11/13 08:23:14;;;;;;;3.28;2.38;;;;;;;11.60;92.79;97579.97;5010511;28;20128;-44
2023/11/13 08:25:43;;;;;;;3.28;1.23;;;;;;;11.72;92.85;97574.22;5012600;28;20361;-47
2023/11/13 08:28:11;;;;;;;2.35;0.77;;;;;;;11.90;93.44;97574.25;5010847;28;20080;-46
2023/11/13 08:30:41;;;;;;;4.32;1.73;;;;;;;12.08;92.64;97596.75;5014565;28;20062;-45
2023/11/13 08:33:08;;;;;;;4.13;2.63;;;;;;;12.16;92.82;97587.78;5017200;28;20081;-46
2023/11/13 08:35:35;;;;;;;1.75;1.65;;;;;;;12.26;91.84;97599.34;5011310;28;20045;-48
2023/11/13 08:38:02;;;;;;;6.60;2.50;;;;;;;12.36;91.99;97588.53;5014559;28;20045;-52
2023/11/13 08:40:29;;;;;;;4.68;2.58;;;;;;;12.43;91.67;97600.31;5016457;28;20145;-51
2023/11/13 08:42:57;;;;;;;2.20;1.75;;;;;;;12.54;91.27;97620.53;5010920;28;20073;-49
2023/11/13 08:45:28;;;;;;;8.30;4.85;;;;;;;12.73;90.80;97618.69;5018669;28;20526;-47
2023/11/13 08:47:54;;;;;;;9.88;5.32;;;;;;;12.84;90.25;97615.53;5010775;28;20049;-49
2023/11/13 08:50:22;;;;;;;11.90;5.68;;;;;;;12.95;90.48;97621.94;5010300;28;20052;-42
2023/11/13 08:52:50;;;;;;;5.97;4.82;;;;;;;12.98;89.36;97593.19;5011017;28;20057;-52
2023/11/13 08:55:17;;;;;;;8.98;4.28;;;;;;;13.07;89.63;97574.53;5018083;28;20045;-49
2023/11/13 08:57:46;;;;;;;6.68;0.93;;;;;;;13.37;89.21;97599.81;5019125;28;20049;-45
2023/11/13 09:00:21;;;;;;;14.52;3.53;;;;;;;13.66;88.37;97611.34;5018637;28;20129;-52
2023/11/13 09:02:55;;;;;;;5.20;1.65;;;;;;;13.55;87.41;97615.38;5020704;28;20505;-47
2023/11/13 09:05:25;;;;;;;10.20;2.95;;;;;;;13.58;86.11;97604.78;5019488;28;20533;-47
2023/11/13 09:07:55;;;;;;;15.52;3.28;;;;;;;13.69;86.48;97621.59;5016712;28;20057;-44
2023/11/13 09:10:26;;;;;;;10.50;2.10;;;;;;;14.02;86.60;97602.44;5021275;28;20050;-45
2023/11/13 09:12:58;;;;;;;13.43;5.22;;;;;;;14.69;86.07;97631.66;5017307;28;20050;-45
2023/11/13 09:15:29;;;;;;;13.98;3.28;;;;;;;15.12;83.72;97636.94;5015655;28;20045;-51
2023/11/13 09:18:01;;;;;;;9.23;2.38;;;;;;;15.13;82.64;97635.19;5016841;28;20151;-42
2023/11/13 09:20:29;;;;;;;10.20;5.72;;;;;;;15.05;81.72;97633.03;5016834;28;20050;-45
2023/11/13 09:22:56;;;;;;;14.40;3.50;;;;;;;15.23;82.09;97630.25;5017442;28;20056;-49
2023/11/13 09:25:28;;;;;;;14.55;3.88;;;;;;;15.34;82.35;97642.63;5017106;28;20096;-47
2023/11/13 09:27:57;;;;;;;13.05;2.63;;;;;;;15.30;81.06;97641.97;5019434;28;20056;-42
2023/11/13 09:30:23;;;;;;;8.98;3.95;;;;;;;15.22;80.39;97645.06;5017601;28;20042;-47
2023/11/13 09:32:51;;;;;;;10.77;3.28;;;;;;;15.46;80.66;97656.66;5025210;28;20324;-45
2023/11/13 09:35:22;;;;;;;12.88;5.32;;;;;;;15.54;80.31;97657.06;5016055;28;20068;-44
2023/11/13 09:40:29;;;;;;;10.77;3.50;;;;;;;15.47;79.07;97692.28;5016811;28;20759;-49
2023/11/13 09:43:07;;;;;;;18.00;5.68;;;;;;;15.13;76.77;97676.91;4996943;28;20158;-50
2023/11/13 09:45:36;;;;;;;12.05;3.92;;;;;;;14.80;75.74;97699.66;4999505;28;20049;-45
2023/11/13 09:48:07;;;;;;;13.30;4.65;;;;;;;14.60;75.89;97696.41;4999588;28;20050;-51
2023/11/13 09:50:35;;;;;;;21.23;6.55;;;;;;;14.44;76.31;97691.22;4995570;28;20057;-48
2023/11/13 09:53:03;;;;;;;18.13;4.10;;;;;;;14.35;76.16;97700.38;4997018;28;20056;-44
2023/11/13 09:55:32;;;;;;;9.75;3.33;;;;;;;14.34;75.50;97711.72;4995931;28;20054;-50
2023/11/13 09:58:00;;;;;;;15.90;4.28;;;;;;;14.34;75.88;97711.72;4995226;28;20057;-53
2023/11/13 10:00:32;;;;;;;14.25;3.78;;;;;;;14.25;75.27;97713.06;4999010;28;20065;-49
2023/11/13 10:03:00;;;;;;;6.85;1.77;;;;;;;14.05;75.09;97726.34;4998833;28;20048;-47
2023/11/13 10:05:30;;;;;;;10.30;3.15;;;;;;;14.28;74.25;97712.03;4997914;28;20042;-47
2023/11/13 10:07:57;;;;;;;13.10;3.50;;;;;;;14.29;70.70;97721.56;4995790;28;20136;-45
2023/11/13 10:10:27;;;;;;;12.98;4.63;;;;;;;14.39;70.86;97733.13;4998428;28;20053;-45
2023/11/13 10:12:56;;;;;;;10.60;2.63;;;;;;;14.89;69.51;97722.56;4999544;28;20474;-47
2023/11/13 10:15:25;;;;;;;11.13;2.92;;;;;;;15.13;68.69;97735.06;4995875;28;20065;-49
2023/11/13 10:17:57;;;;;;;13.48;3.72;;;;;;;15.36;66.68;97740.69;5027526;28;20050;-51
2023/11/13 10:20:25;;;;;;;15.55;3.05;;;;;;;15.63;66.47;97737.38;4996105;28;20590;-47
2023/11/13 10:22:59;;;;;;;14.93;4.40;;;;;;;15.66;66.55;97742.41;4996850;28;20054;-45
2023/11/13 10:25:30;;;;;;;19.38;5.30;;;;;;;15.60;66.00;97737.53;4996397;28;20376;-49
2023/11/13 10:28:00;;;;;;;17.73;4.47;;;;;;;15.45;65.57;97743.69;4996999;28;20057;-44
2023/11/13 10:30:27;;;;;;;;;;;;;;;15.07;63.25;97748.50;4998050;28;26495;-45
2023/11/13 10:32:54;;;;;;;6.72;2.30;;;;;;;14.91;63.31;97748.53;5011737;28;19960;-52
2023/11/13 10:35:38;;;;;;;10.60;3.25;;;;;;;14.67;63.65;97759.41;4994844;28;20077;-47
2023/11/13 10:38:07;;;;;;;7.90;2.47;;;;;;;14.47;62.91;97750.94;4994439;28;20061;-46
2023/11/13 10:40:39;;;;;;;8.93;2.85;;;;;;;14.33;62.92;97772.53;4996203;28;20042;-44
2023/11/13 10:43:07;;;;;;;8.30;4.88;;;;;;;14.26;63.36;97766.81;5000067;28;20416;-48
2023/11/13 10:45:34;;;;;;;9.55;2.78;;;;;;;14.26;64.25;97772.00;4994139;28;20058;-44
2023/11/13 10:48:01;;;;;;;10.30;2.55;;;;;;;14.42;65.37;97762.53;5001549;28;20046;-46
2023/11/13 10:50:29;;;;;;;5.80;1.48;;;;;;;14.47;66.29;97757.91;4994638;28;20050;-48
2023/11/13 10:52:59;;;;;;;13.98;2.30;;;;;;;14.60;66.88;97769.34;4986635;28;20046;-47
2023/11/13 10:55:27;;;;;;;5.85;1.38;;;;;;;14.60;67.38;97774.53;4985305;28;20042;-50
2023/11/13 10:57:55;;;;;;;9.90;2.03;;;;;;;14.60;67.50;97769.34;4981642;28;20046;-51
2023/11/13 11:00:22;;;;;;;6.65;2.70;;;;;;;14.65;67.89;97772.50;4979358;28;20117;-48
2023/11/13 11:02:53;;;;;;;14.95;3.08;;;;;;;14.70;67.68;97779.22;4978297;28;20054;-50
2023/11/13 11:05:22;;;;;;;5.78;2.35;;;;;;;14.69;67.58;97783.59;4979589;28;20081;-53
2023/11/13 11:07:53;;;;;;;8.98;2.05;;;;;;;14.63;67.38;97789.97;4976729;28;20527;-50
2023/11/13 11:10:25;;;;;;;10.13;1.63;;;;;;;14.59;67.16;97804.09;4983576;28;20061;-50
2023/11/13 11:18:32;;;;;;;6.57;1.65;;;;;;;14.39;66.95;97798.22;5017767;28;20400;-47
2023/11/13 11:23:46;;;;;;;9.30;3.30;;;;;;;14.34;66.67;97802.00;5051791;28;20392;-50
2023/11/13 11:26:13;;;;;;;4.80;3.25;;;;;;;14.35;67.72;97809.72;5008842;28;20066;-44
2023/11/13 11:28:52;;;;;;;9.30;2.85;;;;;;;14.31;67.17;97821.25;4988550;28;20117;-47
2023/11/13 11:34:19;;;;;;;4.20;1.00;;;;;;;13.86;66.86;97821.84;5033759;28;20405;-48
2023/11/13 11:36:48;;;;;;;8.60;1.23;;;;;;;13.82;67.35;97809.91;5019323;28;20506;-46
2023/11/13 11:41:51;;;;;;;4.65;1.30;;;;;;;13.62;68.15;97814.38;5121380;27;20391;-51
2023/11/13 11:47:31;;;;;;;5.68;2.58;;;;;;;13.43;69.41;97816.19;5013106;27;20427;-44
2023/11/13 11:49:59;;;;;;;11.15;3.50;;;;;;;13.47;69.54;97820.31;5000280;28;20507;-41
2023/11/13 11:53:02;;;;;;;11.68;3.13;;;;;;;13.47;69.45;97826.38;5000938;28;20088;-47
2023/11/13 11:55:30;;;;;;;6.72;2.92;;;;;;;13.44;70.26;97825.69;4995815;28;20503;-53
2023/11/13 11:57:57;;;;;;;5.25;2.90;;;;;;;13.46;69.54;97837.72;5006383;28;20049;-48
2023/11/13 12:00:25;;;;;;;8.73;3.22;;;;;;;13.51;70.15;97837.47;5019237;28;20057;-49